EGSS/STN METAR and TAF weather

Enter ICAO airport designator
Station Type Date Time Source
EGSS METAR 2018/12/18 11:20 UTC NOAA

EGSS 181120Z AUTO 15016KT 9999 BKN015 09/06 Q1010


Station Type Date Time Source
EGSS Decoded METAR 2018/12/18 11:20 UTC NOAA

Stansted Airport, United Kingdom (EGSS) 51-53N 000-14E 0M
Dec 18, 2018 - 06:20 AM EST / 2018.12.18 1120 UTC
Wind: from the SSE (150 degrees) at 18 MPH (16 KT):0
Visibility: greater than 7 mile(s):0
Sky conditions: mostly cloudy
Temperature: 48 F (9 C)
Dew Point: 42 F (6 C)
Relative Humidity: 81%
Pressure (altimeter): 29.83 in. Hg (1010 hPa)
ob: EGSS 181120Z AUTO 15016KT 9999 BKN015 09/06 Q1010
cycle: 11

Station Type Date Time Source
EGSS TAF 2018/12/18 12:09 UTC NOAA

TAF EGSS 181059Z 1812/1918 17015G25KT 9999 SCT018 PROB30
TEMPO 1812/1817 7000 -RA BKN010 PROB30
TEMPO 1812/1822 18022G35KT
TEMPO 1817/1822 7000 RA BKN007
BECMG 1821/1824 20010KT PROB30
TEMPO 1901/1904 20015G25KT 6000 SHRA BKN010 PROB40
TEMPO 1904/1910 20015G25KT 4000 +SHRA BKN008 BKN015CB


Example: see airport list